Latest Weather Observations for Cape Bruny AWS

IDT60801

Issued at 4:32 pm EST Thursday 29 September 2016 (issued every 30 minutes, with the page automatically refreshed every 10 minutes)

About weather observations | Map of weather stations | Latest weather observations for TAS | Other Formats
Station Details ID: 094198 Name: CAPE BRUNY (CAPE BRUNY) Lat: -43.49 Lon: 147.14 Height: 59.7 m
Data from the previous 72 hours. | See also: Recent months at Cape Bruny AWS
Date/Time
EST
Temp
°C
App
Temp
°C
Dew
Point
°C
Rel
Hum
%
Delta-T
°C
Wind Press
QNH
hPa
Press
MSL
hPa
Rain since
9am
mm
Dir  Spd
km/h
Gust
km/h
Spd
kts
Gust
kts
29/04:30pm 13.3 5.0 9.5 78 2.0 ENE 43 57 23 31 994.0 994.0 0.0
29/04:00pm 13.4 5.2 9.6 78 2.0 ENE 43 56 23 30 994.1 994.1 0.0
29/03:30pm 13.6 4.8 9.6 77 2.1 ENE 46 61 25 33 994.1 994.1 0.0
29/03:06pm 13.4 5.6 9.6 78 1.9 ENE 41 59 22 32 994.3 994.3 0.0
29/03:00pm 13.4 5.0 9.6 78 2.0 ENE 44 59 24 32 994.2 994.2 0.0
29/02:30pm 13.4 5.6 9.6 78 1.9 ENE 41 59 22 32 994.5 994.5 0.0
29/02:00pm 13.5 5.2 9.9 79 1.9 ENE 44 57 24 31 994.7 994.7 0.0
29/01:30pm 13.5 6.1 9.9 79 1.9 ENE 39 52 21 28 994.9 994.9 0.0
29/01:00pm 13.6 6.6 10.0 79 1.9 ENE 37 48 20 26 995.2 995.2 0.0
29/12:30pm 13.2 7.7 10.4 83 1.5 ENE 30 43 16 23 995.7 995.7 0.0
29/12:00pm 13.1 5.1 10.5 84 1.4 ENE 43 56 23 30 996.2 996.2 0.0
29/11:38am 14.4 7.0 10.0 75 2.3 ENE 39 59 21 32 996.2 996.2 0.0
29/11:30am 14.3 6.5 9.9 75 2.3 ENE 41 54 22 29 996.1 996.1 0.0
29/11:00am 13.5 6.0 10.7 83 1.5 ENE 41 59 22 32 996.4 996.5 0.0
29/10:30am 15.1 7.4 10.1 72 2.6 ENE 41 61 22 33 996.7 996.8 0.0
29/10:10am 15.0 7.6 9.8 71 2.7 ENE 39 61 21 33 996.7 996.8 0.0
29/10:00am 14.9 8.3 10.1 73 2.5 NE 35 50 19 27 996.9 997.0 0.0
29/09:34am 14.6 7.9 9.6 72 2.6 ENE 35 54 19 29 997.2 997.3 0.0
29/09:30am 14.6 8.3 9.6 72 2.6 NE 33 48 18 26 997.3 997.4 0.0
29/09:13am 14.4 8.3 9.6 73 2.5 ENE 32 50 17 27 997.5 997.6 0.0
29/09:00am 14.3 8.2 9.7 74 2.4 NE 32 48 17 26 997.6 997.7 0.0
29/08:30am 14.5 7.7 9.3 71 2.7 NE 35 50 19 27 997.5 997.6 0.0
29/08:00am 14.0 8.2 9.6 75 2.3 NE 30 43 16 23 997.7 997.8 0.0
29/07:30am 13.9 7.6 9.7 76 2.2 NE 33 46 18 25 997.7 997.8 0.0
29/07:00am 13.0 8.3 9.4 79 1.8 NE 24 43 13 23 998.2 998.3 0.0
29/06:30am 12.1 8.3 8.9 81 1.6 NE 19 26 10 14 998.6 998.7 0.0
29/06:00am 11.2 7.9 8.1 81 1.5 NNE 15 20 8 11 998.7 998.8 0.0
29/05:30am 10.4 6.5 7.1 80 1.6 NNE 17 26 9 14 998.8 998.9 0.0
29/05:00am 10.3 6.3 6.5 77 1.8 N 17 30 9 16 999.3 999.4 0.0
29/04:30am 10.5 6.1 6.5 76 1.9 NNE 19 30 10 16 999.6 999.7 0.0
29/04:00am 10.6 6.2 6.6 76 1.9 NNE 19 32 10 17 999.7 999.8 0.0
29/03:30am 10.7 6.1 6.3 74 2.1 NE 20 33 11 18 1000.0 1000.1 0.0
29/03:00am 10.8 4.7 6.4 74 2.1 NNE 28 39 15 21 1000.1 1000.2 0.0
29/02:30am 10.8 5.1 6.7 76 1.9 NE 26 41 14 22 1000.5 1000.6 0.0
29/02:00am 10.6 6.0 6.6 76 1.9 NE 20 32 11 17 1001.1 1001.2 0.0
29/01:30am 10.6 6.4 7.3 80 1.6 NE 19 26 10 14 1001.6 1001.7 0.0
29/01:00am 10.9 6.3 8.3 84 1.3 NE 22 35 12 19 1002.2 1002.2 0.0
29/12:30am 10.7 7.8 8.3 85 1.2 NE 13 17 7 9 1002.3 1002.3 0.0
29/12:00am 10.7 8.2 8.1 84 1.3 ENE 11 15 6 8 1002.7 1002.7 0.0
 
Date/Time
EST
Temp
°C
App
Temp
°C
Dew
Point
°C
Rel
Hum
%
Delta-T
°C
Wind Press
QNH
hPa
Press
MSL
hPa
Rain since
9am
mm
Dir  Spd
km/h
Gust
km/h
Spd
kts
Gust
kts
28/11:30pm 11.2 9.1 8.2 82 1.5 NE 9 13 5 7 1003.3 1003.3 0.0
28/11:00pm 11.0 8.5 8.1 82 1.4 NE 11 13 6 7 1003.7 1003.7 0.0
28/10:30pm 10.5 7.8 7.4 81 1.5 NE 11 15 6 8 1004.1 1004.1 0.0
28/10:00pm 10.9 8.2 7.4 79 1.7 ENE 11 17 6 9 1004.4 1004.4 0.0
28/09:30pm 10.9 7.4 7.2 78 1.8 NE 15 20 8 11 1004.8 1004.8 0.0
28/09:00pm 11.2 6.3 6.9 75 2.1 NE 22 32 12 17 1005.1 1005.1 0.0
28/08:30pm 11.2 6.2 6.3 72 2.3 NE 22 33 12 18 1005.2 1005.2 0.0
28/08:00pm 10.8 6.0 5.6 70 2.4 NE 20 30 11 16 1005.3 1005.3 0.0
28/07:30pm 10.4 5.9 4.3 66 2.7 NE 17 24 9 13 1005.4 1005.4 0.0
28/07:00pm 10.6 6.0 3.9 63 3.0 NE 17 22 9 12 1005.5 1005.5 0.0
28/06:30pm 10.4 6.2 3.9 64 2.9 NE 15 20 8 11 1005.4 1005.4 0.0
28/06:00pm 10.9 4.7 4.1 63 3.1 ENE 26 35 14 19 1005.1 1005.1 0.0
28/05:30pm 11.3 4.4 4.5 63 3.1 ENE 30 41 16 22 1004.7 1004.7 0.0
28/05:00pm 11.8 4.2 4.1 59 3.5 ENE 33 44 18 24 1004.5 1004.5 0.0
28/04:30pm 12.3 4.7 3.8 56 3.8 ENE 33 46 18 25 1004.7 1004.7 0.0
28/04:00pm 13.2 6.3 4.6 56 4.0 ENE 30 43 16 23 1005.0 1005.0 0.0
28/03:30pm 13.7 6.2 3.5 50 4.6 E 32 44 17 24 1005.1 1005.1 0.0
28/03:00pm 14.7 8.4 3.5 47 5.1 E 26 35 14 19 1005.5 1005.5 0.0
28/02:30pm 14.7 7.7 4.1 49 4.9 E 30 37 16 20 1005.8 1005.8 0.0
28/02:00pm 14.6 7.4 5.1 53 4.5 ESE 32 41 17 22 1006.2 1006.2 0.0
28/01:30pm 14.3 7.2 5.7 56 4.1 ESE 32 39 17 21 1006.4 1006.4 0.0
28/01:00pm 14.7 8.4 5.8 55 4.3 ESE 28 35 15 19 1007.1 1007.1 0.0
28/12:30pm 15.2 11.1 4.3 48 5.1 ENE 15 28 8 15 1007.7 1007.7 0.0
28/12:00pm 15.2 10.4 2.7 43 5.6 NE 17 22 9 12 1008.1 1008.1 0.0
28/11:30am 15.1 10.9 3.6 46 5.3 NE 15 24 8 13 1008.2 1008.2 0.0
28/11:00am 14.4 10.1 3.2 47 5.1 NNE 15 24 8 13 1008.6 1008.6 0.0
28/10:30am 13.8 10.5 2.4 46 5.0 NW 9 13 5 7 1009.0 1009.0 0.0
28/10:00am 14.0 10.2 3.8 50 4.7 WNW 13 17 7 9 1009.1 1009.1 0.0
28/09:30am 13.1 9.3 3.7 53 4.2 NW 13 20 7 11 1009.3 1009.3 0.0
28/09:00am 12.9 9.2 4.6 57 3.8 NW 13 19 7 10 1009.3 1009.3 0.6
28/08:30am 11.9 8.2 4.6 61 3.3 NW 13 20 7 11 1009.3 1009.3 0.6
28/08:00am 11.2 7.1 4.2 62 3.1 NNW 15 19 8 10 1009.3 1009.3 0.6
28/07:30am 10.5 5.4 4.2 65 2.8 NW 20 30 11 16 1009.3 1009.3 0.6
28/07:00am 10.1 4.9 3.8 65 2.8 NW 20 30 11 16 1009.1 1009.1 0.6
28/06:30am 9.5 5.3 3.9 68 2.5 WNW 15 22 8 12 1008.9 1008.9 0.6
28/06:00am 9.4 4.4 4.4 71 2.2 WNW 20 30 11 16 1008.6 1008.6 0.6
28/05:30am 9.2 3.0 4.2 71 2.2 NW 26 33 14 18 1008.3 1008.3 0.6
28/05:00am 9.1 4.1 4.7 74 2.0 WNW 20 26 11 14 1008.2 1008.2 0.6
28/04:30am 9.3 4.4 4.9 74 2.0 NW 20 30 11 16 1007.9 1007.9 0.6
28/04:00am 9.3 4.5 5.7 78 1.6 WNW 20 26 11 14 1007.8 1007.8 0.6
28/03:30am 9.7 5.3 6.4 80 1.5 W 19 22 10 12 1007.7 1007.7 0.6
28/03:00am 10.4 5.8 6.7 78 1.7 W 20 30 11 16 1007.5 1007.5 0.6
28/02:30am 9.4 6.8 6.3 81 1.4 NW 9 13 5 7 1007.2 1007.2 0.6
28/02:00am 9.5 6.1 5.9 78 1.7 NW 13 15 7 8 1007.0 1007.0 0.6
28/01:30am 9.9 6.5 5.9 76 1.8 NW 13 17 7 9 1006.9 1006.9 0.4
28/01:00am 9.8 6.4 6.0 77 1.8 NNW 13 17 7 9 1006.8 1006.8 0.4
28/12:30am 9.9 6.6 6.4 79 1.6 NW 13 19 7 10 1006.9 1006.9 0.4
28/12:00am 9.6 5.8 7.5 87 1.0 N 17 19 9 10 1006.9 1006.9 0.4
 
Date/Time
EST
Temp
°C
App
Temp
°C
Dew
Point
°C
Rel
Hum
%
Delta-T
°C
Wind Press
QNH
hPa
Press
MSL
hPa
Rain since
9am
mm
Dir  Spd
km/h
Gust
km/h
Spd
kts
Gust
kts
27/11:30pm 9.3 5.7 6.9 85 1.1 N 15 20 8 11 1006.9 1006.9 0.4
27/11:00pm 9.5 6.1 7.6 88 0.9 N 15 20 8 11 1006.8 1006.8 0.4
27/10:30pm 9.5 5.7 7.4 87 1.0 N 17 22 9 12 1006.9 1006.9 0.4
27/10:00pm 9.3 5.8 7.4 88 0.9 NNE 15 19 8 10 1006.9 1006.9 0.4
27/09:30pm 10.0 6.6 7.8 86 1.1 NW 15 17 8 9 1007.2 1007.2 0.4
27/09:00pm 9.8 7.5 7.4 85 1.1 NW 9 13 5 7 1007.3 1007.3 0.4
27/08:30pm 10.0 8.2 7.1 82 1.4 NE 6 9 3 5 1007.3 1007.3 0.4
27/08:00pm 10.5 7.9 7.6 82 1.4 ESE 11 13 6 7 1007.4 1007.4 0.4
27/07:30pm 11.0 9.0 7.3 78 1.8 ESE 7 13 4 7 1007.4 1007.4 0.2
27/07:00pm 11.0 7.9 7.1 77 1.9 ESE 13 17 7 9 1007.3 1007.3 0.0
27/06:30pm 11.1 8.2 6.6 74 2.1 SE 11 17 6 9 1007.1 1007.1 0.0
27/06:00pm 11.2 8.2 6.1 71 2.4 SSE 11 19 6 10 1007.0 1007.0 0.0
27/05:30pm 11.4 7.3 6.3 71 2.4 ESE 17 20 9 11 1006.8 1006.8 0.0
27/05:00pm 12.5 8.4 6.3 66 3.0 ESE 17 20 9 11 1006.6 1006.6 0.0
27/04:30pm 12.9 8.5 6.5 65 3.1 ESE 19 26 10 14 1006.4 1006.4 0.0
27/04:00pm 13.5 9.0 6.1 61 3.5 SE 19 26 10 14 1006.5 1006.5 0.0
27/03:30pm 13.5 8.6 5.2 57 3.9 ESE 20 30 11 16 1006.3 1006.3 0.0
27/03:00pm 14.1 10.3 6.0 58 3.9 SE 15 22 8 12 1006.3 1006.3 0.0
27/02:30pm 14.1 9.7 6.7 61 3.6 SE 19 26 10 14 1006.3 1006.3 0.0
27/02:00pm 14.1 10.3 7.6 65 3.2 SE 17 24 9 13 1006.5 1006.5 0.0
27/01:30pm 14.4 11.4 7.9 65 3.2 SSE 13 19 7 10 1006.7 1006.7 0.0
27/01:00pm 13.6 9.4 7.6 67 3.0 S 19 24 10 13 1006.9 1006.9 0.0
27/12:30pm 14.2 11.2 7.7 65 3.2 SE 13 19 7 10 1007.0 1007.0 0.0
27/12:00pm 14.1 10.8 6.2 59 3.8 S 13 15 7 8 1007.0 1007.0 0.0
27/11:30am 14.4 11.7 5.7 56 4.1 WNW 9 13 5 7 1007.2 1007.2 0.0
27/11:00am 15.0 12.2 5.2 52 4.7 WNW 9 13 5 7 1007.3 1007.3 0.0
27/10:30am 14.3 10.6 6.4 59 3.8 N 15 20 8 11 1007.4 1007.4 0.0
27/10:00am 13.2 8.9 6.8 65 3.1 NNE 19 24 10 13 1007.5 1007.5 0.0
27/09:30am 11.0 7.3 6.4 73 2.2 NNE 15 24 8 13 1007.6 1007.6 0.0
27/09:00am 11.2 7.3 7.1 76 2.0 N 17 22 9 12 1007.4 1007.4 0.2
27/08:30am 9.3 4.6 5.3 76 1.8 N 19 28 10 15 1007.5 1007.5 0.2
27/08:00am 8.6 3.8 5.7 82 1.3 N 20 26 11 14 1007.5 1007.5 0.2
27/07:30am 9.3 4.4 6.7 84 1.2 NNE 22 30 12 16 1007.3 1007.3 0.2
27/07:00am 8.1 3.7 6.6 90 0.7 N 19 22 10 12 1007.3 1007.3 0.2
27/06:30am 7.3 2.8 6.1 92 0.5 N 19 26 10 14 1007.3 1007.3 0.2
27/06:00am 6.6 1.8 5.4 92 0.5 N 20 24 11 13 1007.1 1007.1 0.2
27/05:30am 7.0 2.4 5.8 92 0.5 N 19 24 10 13 1006.8 1006.8 0.2
27/05:00am 6.9 2.3 5.7 92 0.5 N 19 20 10 11 1006.9 1006.9 0.2
27/04:30am 6.8 2.5 5.4 91 0.6 N 17 20 9 11 1006.9 1006.9 0.2
27/04:00am 7.3 2.5 5.8 90 0.7 N 20 22 11 12 1006.8 1006.8 0.2
27/03:30am 7.5 3.0 6.0 90 0.7 N 19 20 10 11 1006.8 1006.8 0.2
27/03:00am 7.6 3.1 6.1 90 0.7 N 19 20 10 11 1006.9 1006.9 0.2
27/02:30am 7.7 3.6 6.0 89 0.8 N 17 17 9 9 1007.1 1007.1 0.2
27/02:00am 7.5 3.3 5.8 89 0.8 N 17 20 9 11 1007.3 1007.3 0.2
27/01:30am 7.4 3.2 5.5 88 0.8 N 17 19 9 10 1007.6 1007.6 0.2
27/01:00am 7.2 4.7 4.7 84 1.1 ENE 7 11 4 6 1007.8 1007.8 0.2
27/12:30am 8.3 7.4 6.1 86 1.0 CALM 0 0 0 0 1008.0 1008.0 0.2
27/12:00am 8.1 5.5 5.9 86 1.0 W 9 11 5 6 1008.2 1008.2 0.2
 
Date/Time
EST
Temp
°C
App
Temp
°C
Dew
Point
°C
Rel
Hum
%
Delta-T
°C
Wind Press
QNH
hPa
Press
MSL
hPa
Rain since
9am
mm
Dir  Spd
km/h
Gust
km/h
Spd
kts
Gust
kts
26/11:30pm 7.6 4.8 5.2 85 1.1 WNW 9 11 5 6 1008.4 1008.4 0.2
26/11:00pm 8.7 5.7 6.0 83 1.2 WNW 11 13 6 7 1008.5 1008.5 0.2
26/10:30pm 8.3 7.1 4.7 78 1.6 CALM 0 0 0 0 1008.6 1008.6 0.2
26/10:00pm 8.3 5.6 5.4 82 1.3 NW 9 11 5 6 1008.8 1008.8 0.2
26/09:30pm 9.1 6.1 5.8 80 1.5 WNW 11 15 6 8 1009.0 1009.0 0.2
26/09:00pm 9.0 6.3 5.6 79 1.5 NW 9 13 5 7 1009.0 1009.0 0.2
26/08:30pm 9.2 6.2 6.1 81 1.4 NW 11 15 6 8 1008.9 1008.9 0.2
26/08:00pm 8.6 5.3 4.6 76 1.8 NNE 11 13 6 7 1008.8 1008.8 0.2
26/07:30pm 10.0 7.2 5.2 72 2.2 NNE 9 11 5 6 1008.7 1008.7 0.2
26/07:00pm 10.1 7.7 5.1 71 2.3 NNE 7 9 4 5 1008.6 1008.6 0.2
26/06:30pm 10.7 8.0 5.5 70 2.4 NE 9 11 5 6 1008.4 1008.4 0.2
26/06:00pm 10.7 9.2 4.8 67 2.7 ESE 2 9 1 5 1008.4 1008.4 0.2
26/05:30pm 11.1 7.9 5.0 66 2.8 ESE 11 17 6 9 1008.2 1008.2 0.2
26/05:00pm 12.1 8.9 5.3 63 3.2 SE 11 15 6 8 1007.9 1007.9 0.2

Other Formats:

Comma delimited format used in spreadsheet applications
http://www.bom.gov.au/fwo/IDT60801/IDT60801.95967.axf

JavaScript Object Notation format (JSON) in row-major order
http://www.bom.gov.au/fwo/IDT60801/IDT60801.95967.json